sensor_id;sensor_type;location;lat;lon;timestamp;P1;durP1;ratioP1;P2;durP2;ratioP2
53927;SDS011;39837;47.630;18.822;2024-02-23T00:00:49;4.53;;;3.45;;
53927;SDS011;39837;47.630;18.822;2024-02-23T00:03:33;4.07;;;3.78;;
53927;SDS011;39837;47.630;18.822;2024-02-23T00:06:21;3.88;;;3.63;;
53927;SDS011;39837;47.630;18.822;2024-02-23T00:09:06;4.18;;;3.80;;
53927;SDS011;39837;47.630;18.822;2024-02-23T00:11:50;3.78;;;3.47;;
53927;SDS011;39837;47.630;18.822;2024-02-23T00:14:35;4.18;;;3.72;;
53927;SDS011;39837;47.630;18.822;2024-02-23T00:17:19;8.00;;;4.10;;
53927;SDS011;39837;47.630;18.822;2024-02-23T00:20:04;4.35;;;3.78;;
53927;SDS011;39837;47.630;18.822;2024-02-23T00:22:49;3.83;;;3.53;;
53927;SDS011;39837;47.630;18.822;2024-02-23T00:25:33;6.63;;;3.78;;
53927;SDS011;39837;47.630;18.822;2024-02-23T00:28:17;4.90;;;3.63;;
53927;SDS011;39837;47.630;18.822;2024-02-23T00:31:01;4.13;;;3.47;;
53927;SDS011;39837;47.630;18.822;2024-02-23T00:33:45;3.33;;;3.13;;
53927;SDS011;39837;47.630;18.822;2024-02-23T00:36:29;4.95;;;3.55;;
53927;SDS011;39837;47.630;18.822;2024-02-23T00:39:13;4.53;;;4.15;;
53927;SDS011;39837;47.630;18.822;2024-02-23T00:41:58;7.28;;;3.35;;
53927;SDS011;39837;47.630;18.822;2024-02-23T00:44:42;4.05;;;3.72;;
53927;SDS011;39837;47.630;18.822;2024-02-23T00:47:26;4.30;;;3.90;;
53927;SDS011;39837;47.630;18.822;2024-02-23T00:50:10;4.45;;;4.05;;
53927;SDS011;39837;47.630;18.822;2024-02-23T00:52:55;4.43;;;4.13;;
53927;SDS011;39837;47.630;18.822;2024-02-23T00:55:42;4.75;;;4.28;;
53927;SDS011;39837;47.630;18.822;2024-02-23T00:58:26;5.03;;;4.13;;
53927;SDS011;39837;47.630;18.822;2024-02-23T01:01:10;4.25;;;3.58;;
53927;SDS011;39837;47.630;18.822;2024-02-23T01:03:54;5.43;;;4.13;;
53927;SDS011;39837;47.630;18.822;2024-02-23T01:06:38;4.57;;;4.13;;
53927;SDS011;39837;47.630;18.822;2024-02-23T01:09:22;4.10;;;3.53;;
53927;SDS011;39837;47.630;18.822;2024-02-23T01:12:06;4.45;;;4.05;;
53927;SDS011;39837;47.630;18.822;2024-02-23T01:14:50;4.75;;;3.50;;
53927;SDS011;39837;47.630;18.822;2024-02-23T01:17:34;4.78;;;4.28;;
53927;SDS011;39837;47.630;18.822;2024-02-23T01:20:18;4.57;;;4.18;;
53927;SDS011;39837;47.630;18.822;2024-02-23T01:23:02;3.58;;;3.38;;
53927;SDS011;39837;47.630;18.822;2024-02-23T01:25:46;5.88;;;4.45;;
53927;SDS011;39837;47.630;18.822;2024-02-23T01:28:30;5.18;;;4.43;;
53927;SDS011;39837;47.630;18.822;2024-02-23T01:31:14;3.90;;;3.60;;
53927;SDS011;39837;47.630;18.822;2024-02-23T01:33:58;9.15;;;4.50;;
53927;SDS011;39837;47.630;18.822;2024-02-23T01:36:42;7.43;;;4.10;;
53927;SDS011;39837;47.630;18.822;2024-02-23T01:39:26;4.57;;;4.18;;
53927;SDS011;39837;47.630;18.822;2024-02-23T01:42:10;9.07;;;5.43;;
53927;SDS011;39837;47.630;18.822;2024-02-23T01:44:54;9.93;;;4.43;;
53927;SDS011;39837;47.630;18.822;2024-02-23T01:47:41;4.88;;;3.88;;
53927;SDS011;39837;47.630;18.822;2024-02-23T01:50:25;4.15;;;3.85;;
53927;SDS011;39837;47.630;18.822;2024-02-23T01:53:10;4.80;;;4.40;;
53927;SDS011;39837;47.630;18.822;2024-02-23T01:55:56;5.45;;;4.57;;
53927;SDS011;39837;47.630;18.822;2024-02-23T01:58:41;5.32;;;4.88;;
53927;SDS011;39837;47.630;18.822;2024-02-23T02:01:25;7.28;;;4.47;;
53927;SDS011;39837;47.630;18.822;2024-02-23T02:04:10;4.65;;;4.35;;
53927;SDS011;39837;47.630;18.822;2024-02-23T02:06:54;4.63;;;4.32;;
53927;SDS011;39837;47.630;18.822;2024-02-23T02:09:38;4.93;;;4.25;;
53927;SDS011;39837;47.630;18.822;2024-02-23T02:12:28;4.47;;;4.15;;
53927;SDS011;39837;47.630;18.822;2024-02-23T02:15:13;4.75;;;4.00;;
53927;SDS011;39837;47.630;18.822;2024-02-23T02:17:57;4.95;;;4.55;;
53927;SDS011;39837;47.630;18.822;2024-02-23T02:20:43;5.90;;;4.15;;
53927;SDS011;39837;47.630;18.822;2024-02-23T02:23:35;4.75;;;4.05;;
53927;SDS011;39837;47.630;18.822;2024-02-23T02:26:20;6.53;;;4.68;;
53927;SDS011;39837;47.630;18.822;2024-02-23T02:29:04;4.95;;;4.45;;
53927;SDS011;39837;47.630;18.822;2024-02-23T02:31:49;5.60;;;4.43;;
53927;SDS011;39837;47.630;18.822;2024-02-23T02:34:33;6.90;;;4.95;;
53927;SDS011;39837;47.630;18.822;2024-02-23T02:37:17;4.88;;;4.20;;
53927;SDS011;39837;47.630;18.822;2024-02-23T02:40:01;5.63;;;4.53;;
53927;SDS011;39837;47.630;18.822;2024-02-23T02:42:46;5.97;;;5.00;;
53927;SDS011;39837;47.630;18.822;2024-02-23T02:45:30;5.70;;;4.40;;
53927;SDS011;39837;47.630;18.822;2024-02-23T02:48:14;6.18;;;5.13;;
53927;SDS011;39837;47.630;18.822;2024-02-23T02:50:58;5.55;;;5.05;;
53927;SDS011;39837;47.630;18.822;2024-02-23T02:53:42;5.55;;;4.55;;
53927;SDS011;39837;47.630;18.822;2024-02-23T02:56:26;6.38;;;5.20;;
53927;SDS011;39837;47.630;18.822;2024-02-23T02:59:10;5.82;;;5.22;;
53927;SDS011;39837;47.630;18.822;2024-02-23T03:01:55;6.15;;;4.35;;
53927;SDS011;39837;47.630;18.822;2024-02-23T03:04:47;5.30;;;4.80;;
53927;SDS011;39837;47.630;18.822;2024-02-23T03:07:32;10.27;;;5.80;;
53927;SDS011;39837;47.630;18.822;2024-02-23T03:10:16;10.95;;;5.60;;
53927;SDS011;39837;47.630;18.822;2024-02-23T03:13:00;6.00;;;5.30;;
53927;SDS011;39837;47.630;18.822;2024-02-23T03:15:44;6.53;;;5.25;;
53927;SDS011;39837;47.630;18.822;2024-02-23T03:18:28;10.50;;;6.07;;
53927;SDS011;39837;47.630;18.822;2024-02-23T03:21:12;5.78;;;4.63;;
53927;SDS011;39837;47.630;18.822;2024-02-23T03:23:58;8.02;;;5.32;;
53927;SDS011;39837;47.630;18.822;2024-02-23T03:26:43;7.88;;;5.10;;
53927;SDS011;39837;47.630;18.822;2024-02-23T03:29:27;5.72;;;5.22;;
53927;SDS011;39837;47.630;18.822;2024-02-23T03:32:14;5.88;;;5.47;;
53927;SDS011;39837;47.630;18.822;2024-02-23T03:34:58;5.75;;;5.20;;
53927;SDS011;39837;47.630;18.822;2024-02-23T03:37:42;8.27;;;4.95;;
53927;SDS011;39837;47.630;18.822;2024-02-23T03:40:26;5.35;;;4.85;;
53927;SDS011;39837;47.630;18.822;2024-02-23T03:43:10;6.78;;;5.47;;
53927;SDS011;39837;47.630;18.822;2024-02-23T03:45:54;9.38;;;5.88;;
53927;SDS011;39837;47.630;18.822;2024-02-23T03:48:39;9.05;;;5.93;;
53927;SDS011;39837;47.630;18.822;2024-02-23T03:51:24;6.80;;;6.05;;
53927;SDS011;39837;47.630;18.822;2024-02-23T03:54:08;6.18;;;5.45;;
53927;SDS011;39837;47.630;18.822;2024-02-23T03:56:52;7.75;;;6.60;;
53927;SDS011;39837;47.630;18.822;2024-02-23T03:59:36;6.95;;;5.05;;
53927;SDS011;39837;47.630;18.822;2024-02-23T04:02:21;7.37;;;5.50;;
53927;SDS011;39837;47.630;18.822;2024-02-23T04:05:05;7.63;;;6.40;;
53927;SDS011;39837;47.630;18.822;2024-02-23T04:07:50;8.30;;;6.43;;
53927;SDS011;39837;47.630;18.822;2024-02-23T04:10:34;6.03;;;5.43;;
53927;SDS011;39837;47.630;18.822;2024-02-23T04:13:19;8.95;;;5.45;;
53927;SDS011;39837;47.630;18.822;2024-02-23T04:16:03;9.43;;;5.55;;
53927;SDS011;39837;47.630;18.822;2024-02-23T04:18:47;7.82;;;5.93;;
53927;SDS011;39837;47.630;18.822;2024-02-23T04:21:31;6.28;;;5.10;;
53927;SDS011;39837;47.630;18.822;2024-02-23T04:24:15;9.32;;;5.50;;
53927;SDS011;39837;47.630;18.822;2024-02-23T04:26:59;6.30;;;5.80;;
53927;SDS011;39837;47.630;18.822;2024-02-23T04:29:44;7.28;;;5.28;;
53927;SDS011;39837;47.630;18.822;2024-02-23T04:32:28;5.63;;;5.13;;
53927;SDS011;39837;47.630;18.822;2024-02-23T04:35:12;8.32;;;6.10;;
53927;SDS011;39837;47.630;18.822;2024-02-23T04:37:56;5.10;;;4.70;;
53927;SDS011;39837;47.630;18.822;2024-02-23T04:40:40;5.70;;;5.20;;
53927;SDS011;39837;47.630;18.822;2024-02-23T04:43:24;6.05;;;4.88;;
53927;SDS011;39837;47.630;18.822;2024-02-23T04:46:09;5.72;;;5.20;;
53927;SDS011;39837;47.630;18.822;2024-02-23T04:48:53;5.55;;;5.05;;
53927;SDS011;39837;47.630;18.822;2024-02-23T04:51:37;9.85;;;4.88;;
53927;SDS011;39837;47.630;18.822;2024-02-23T04:54:21;11.95;;;6.20;;
53927;SDS011;39837;47.630;18.822;2024-02-23T04:57:05;12.63;;;5.05;;
53927;SDS011;39837;47.630;18.822;2024-02-23T04:59:49;4.93;;;4.38;;
53927;SDS011;39837;47.630;18.822;2024-02-23T05:02:33;5.47;;;5.07;;
53927;SDS011;39837;47.630;18.822;2024-02-23T05:05:19;7.18;;;5.15;;
53927;SDS011;39837;47.630;18.822;2024-02-23T05:08:05;8.02;;;5.00;;
53927;SDS011;39837;47.630;18.822;2024-02-23T05:10:50;6.55;;;4.97;;
53927;SDS011;39837;47.630;18.822;2024-02-23T05:13:35;4.47;;;4.07;;
53927;SDS011;39837;47.630;18.822;2024-02-23T05:16:19;6.07;;;4.37;;
53927;SDS011;39837;47.630;18.822;2024-02-23T05:19:03;4.15;;;3.85;;
53927;SDS011;39837;47.630;18.822;2024-02-23T05:21:47;4.70;;;4.00;;
53927;SDS011;39837;47.630;18.822;2024-02-23T05:24:32;4.70;;;4.20;;
53927;SDS011;39837;47.630;18.822;2024-02-23T05:27:16;3.60;;;3.30;;
53927;SDS011;39837;47.630;18.822;2024-02-23T05:30:00;2.88;;;2.78;;
53927;SDS011;39837;47.630;18.822;2024-02-23T05:32:44;2.40;;;2.30;;
53927;SDS011;39837;47.630;18.822;2024-02-23T05:35:28;2.40;;;2.30;;
53927;SDS011;39837;47.630;18.822;2024-02-23T05:38:12;2.05;;;1.95;;
53927;SDS011;39837;47.630;18.822;2024-02-23T05:40:56;1.95;;;1.95;;
53927;SDS011;39837;47.630;18.822;2024-02-23T05:43:40;1.30;;;1.30;;
53927;SDS011;39837;47.630;18.822;2024-02-23T05:46:24;1.98;;;1.98;;
53927;SDS011;39837;47.630;18.822;2024-02-23T05:49:08;1.45;;;1.45;;
53927;SDS011;39837;47.630;18.822;2024-02-23T05:51:53;1.75;;;1.75;;
53927;SDS011;39837;47.630;18.822;2024-02-23T05:54:36;1.77;;;1.73;;
53927;SDS011;39837;47.630;18.822;2024-02-23T05:57:20;4.43;;;1.65;;
53927;SDS011;39837;47.630;18.822;2024-02-23T06:00:04;1.67;;;1.60;;
53927;SDS011;39837;47.630;18.822;2024-02-23T06:02:49;1.63;;;1.63;;
53927;SDS011;39837;47.630;18.822;2024-02-23T06:05:34;3.42;;;1.58;;
53927;SDS011;39837;47.630;18.822;2024-02-23T06:08:17;1.92;;;1.80;;
53927;SDS011;39837;47.630;18.822;2024-02-23T06:11:02;1.75;;;1.65;;
53927;SDS011;39837;47.630;18.822;2024-02-23T06:13:47;1.90;;;1.90;;
53927;SDS011;39837;47.630;18.822;2024-02-23T06:16:31;2.47;;;2.38;;
53927;SDS011;39837;47.630;18.822;2024-02-23T06:19:15;2.35;;;1.90;;
53927;SDS011;39837;47.630;18.822;2024-02-23T06:21:59;2.20;;;2.03;;
53927;SDS011;39837;47.630;18.822;2024-02-23T06:24:43;1.88;;;1.88;;
53927;SDS011;39837;47.630;18.822;2024-02-23T06:27:27;1.60;;;1.60;;
53927;SDS011;39837;47.630;18.822;2024-02-23T06:30:11;1.75;;;1.70;;
53927;SDS011;39837;47.630;18.822;2024-02-23T06:32:55;1.90;;;1.80;;
53927;SDS011;39837;47.630;18.822;2024-02-23T06:35:40;1.60;;;1.50;;
53927;SDS011;39837;47.630;18.822;2024-02-23T06:38:24;1.73;;;1.63;;
53927;SDS011;39837;47.630;18.822;2024-02-23T06:41:08;1.98;;;1.67;;
53927;SDS011;39837;47.630;18.822;2024-02-23T06:43:54;1.63;;;1.63;;
53927;SDS011;39837;47.630;18.822;2024-02-23T06:46:38;2.22;;;1.98;;
53927;SDS011;39837;47.630;18.822;2024-02-23T06:49:22;1.75;;;1.75;;
53927;SDS011;39837;47.630;18.822;2024-02-23T06:52:06;1.67;;;1.63;;
53927;SDS011;39837;47.630;18.822;2024-02-23T06:54:50;2.28;;;2.17;;
53927;SDS011;39837;47.630;18.822;2024-02-23T06:57:34;17.48;;;15.68;;
53927;SDS011;39837;47.630;18.822;2024-02-23T07:00:19;6.25;;;5.65;;
53927;SDS011;39837;47.630;18.822;2024-02-23T07:03:07;3.88;;;2.08;;
53927;SDS011;39837;47.630;18.822;2024-02-23T07:05:51;3.92;;;3.03;;
53927;SDS011;39837;47.630;18.822;2024-02-23T07:08:35;2.85;;;2.65;;
53927;SDS011;39837;47.630;18.822;2024-02-23T07:11:19;3.05;;;2.92;;
53927;SDS011;39837;47.630;18.822;2024-02-23T07:14:03;1.85;;;1.80;;
53927;SDS011;39837;47.630;18.822;2024-02-23T07:16:48;2.10;;;1.98;;
53927;SDS011;39837;47.630;18.822;2024-02-23T07:19:32;40.63;;;28.27;;
53927;SDS011;39837;47.630;18.822;2024-02-23T07:22:16;5.80;;;5.03;;
53927;SDS011;39837;47.630;18.822;2024-02-23T07:25:02;4.38;;;3.97;;
53927;SDS011;39837;47.630;18.822;2024-02-23T07:27:47;1.85;;;1.85;;
53927;SDS011;39837;47.630;18.822;2024-02-23T07:30:35;2.33;;;2.13;;
53927;SDS011;39837;47.630;18.822;2024-02-23T07:33:19;2.28;;;2.20;;
53927;SDS011;39837;47.630;18.822;2024-02-23T07:36:03;2.70;;;2.60;;
53927;SDS011;39837;47.630;18.822;2024-02-23T07:38:47;1.95;;;1.85;;
53927;SDS011;39837;47.630;18.822;2024-02-23T07:41:31;2.47;;;2.28;;
53927;SDS011;39837;47.630;18.822;2024-02-23T07:44:15;2.42;;;2.33;;
53927;SDS011;39837;47.630;18.822;2024-02-23T07:46:59;2.25;;;2.15;;
53927;SDS011;39837;47.630;18.822;2024-02-23T07:49:44;2.88;;;2.05;;
53927;SDS011;39837;47.630;18.822;2024-02-23T07:52:28;2.03;;;1.98;;
53927;SDS011;39837;47.630;18.822;2024-02-23T07:55:12;1.92;;;1.88;;
53927;SDS011;39837;47.630;18.822;2024-02-23T07:57:56;1.75;;;1.73;;
53927;SDS011;39837;47.630;18.822;2024-02-23T08:00:44;2.97;;;2.78;;
53927;SDS011;39837;47.630;18.822;2024-02-23T08:03:28;1.88;;;1.88;;
53927;SDS011;39837;47.630;18.822;2024-02-23T08:06:12;1.90;;;1.80;;
53927;SDS011;39837;47.630;18.822;2024-02-23T08:08:56;1.98;;;1.90;;
53927;SDS011;39837;47.630;18.822;2024-02-23T08:11:41;2.00;;;1.90;;
53927;SDS011;39837;47.630;18.822;2024-02-23T08:14:25;1.88;;;1.83;;
53927;SDS011;39837;47.630;18.822;2024-02-23T08:17:09;2.22;;;2.13;;
53927;SDS011;39837;47.630;18.822;2024-02-23T08:19:54;1.83;;;1.83;;
53927;SDS011;39837;47.630;18.822;2024-02-23T08:22:38;2.08;;;1.92;;
53927;SDS011;39837;47.630;18.822;2024-02-23T08:25:22;2.40;;;2.30;;
53927;SDS011;39837;47.630;18.822;2024-02-23T08:28:06;2.22;;;2.13;;
53927;SDS011;39837;47.630;18.822;2024-02-23T08:30:50;2.25;;;2.17;;
53927;SDS011;39837;47.630;18.822;2024-02-23T08:33:34;1.90;;;1.80;;
53927;SDS011;39837;47.630;18.822;2024-02-23T08:36:18;1.90;;;1.90;;
53927;SDS011;39837;47.630;18.822;2024-02-23T08:39:03;1.63;;;1.63;;
53927;SDS011;39837;47.630;18.822;2024-02-23T08:41:46;1.83;;;1.77;;
53927;SDS011;39837;47.630;18.822;2024-02-23T08:44:30;4.78;;;2.60;;
53927;SDS011;39837;47.630;18.822;2024-02-23T08:47:14;2.15;;;2.05;;
53927;SDS011;39837;47.630;18.822;2024-02-23T08:49:59;1.80;;;1.70;;
53927;SDS011;39837;47.630;18.822;2024-02-23T08:52:43;2.10;;;2.00;;
53927;SDS011;39837;47.630;18.822;2024-02-23T08:55:26;4.53;;;4.13;;
53927;SDS011;39837;47.630;18.822;2024-02-23T08:58:11;2.35;;;2.25;;
53927;SDS011;39837;47.630;18.822;2024-02-23T09:00:55;3.40;;;3.10;;
53927;SDS011;39837;47.630;18.822;2024-02-23T09:03:39;6.75;;;2.72;;
53927;SDS011;39837;47.630;18.822;2024-02-23T09:06:23;3.20;;;2.03;;
53927;SDS011;39837;47.630;18.822;2024-02-23T09:09:07;2.60;;;2.50;;
53927;SDS011;39837;47.630;18.822;2024-02-23T09:11:52;2.30;;;2.10;;
53927;SDS011;39837;47.630;18.822;2024-02-23T09:14:36;2.80;;;2.63;;
53927;SDS011;39837;47.630;18.822;2024-02-23T09:20:07;3.35;;;3.03;;
53927;SDS011;39837;47.630;18.822;2024-02-23T09:22:52;4.05;;;3.80;;
53927;SDS011;39837;47.630;18.822;2024-02-23T09:25:36;3.03;;;2.72;;
53927;SDS011;39837;47.630;18.822;2024-02-23T09:28:20;3.17;;;2.97;;
53927;SDS011;39837;47.630;18.822;2024-02-23T09:31:04;2.60;;;2.50;;
53927;SDS011;39837;47.630;18.822;2024-02-23T09:33:50;2.47;;;2.38;;
53927;SDS011;39837;47.630;18.822;2024-02-23T09:36:34;2.22;;;2.10;;
53927;SDS011;39837;47.630;18.822;2024-02-23T09:39:18;2.85;;;2.53;;
53927;SDS011;39837;47.630;18.822;2024-02-23T09:42:03;2.63;;;2.42;;
53927;SDS011;39837;47.630;18.822;2024-02-23T09:44:58;2.50;;;2.40;;
53927;SDS011;39837;47.630;18.822;2024-02-23T09:47:43;2.78;;;2.67;;
53927;SDS011;39837;47.630;18.822;2024-02-23T09:50:28;2.60;;;2.50;;
53927;SDS011;39837;47.630;18.822;2024-02-23T09:53:13;2.83;;;2.63;;
53927;SDS011;39837;47.630;18.822;2024-02-23T09:55:57;5.63;;;2.25;;
53927;SDS011;39837;47.630;18.822;2024-02-23T10:01:28;2.38;;;2.28;;
53927;SDS011;39837;47.630;18.822;2024-02-23T10:04:16;1.95;;;1.80;;
53927;SDS011;39837;47.630;18.822;2024-02-23T10:07:01;30.40;;;20.58;;
53927;SDS011;39837;47.630;18.822;2024-02-23T10:09:45;5.53;;;5.03;;
53927;SDS011;39837;47.630;18.822;2024-02-23T10:12:29;3.17;;;2.97;;
53927;SDS011;39837;47.630;18.822;2024-02-23T10:15:14;2.88;;;2.78;;
53927;SDS011;39837;47.630;18.822;2024-02-23T10:17:59;3.17;;;2.88;;
53927;SDS011;39837;47.630;18.822;2024-02-23T10:20:43;2.30;;;2.20;;
53927;SDS011;39837;47.630;18.822;2024-02-23T10:23:27;2.63;;;2.53;;
53927;SDS011;39837;47.630;18.822;2024-02-23T10:26:12;2.25;;;2.15;;
53927;SDS011;39837;47.630;18.822;2024-02-23T10:28:56;3.50;;;2.67;;
53927;SDS011;39837;47.630;18.822;2024-02-23T10:31:42;2.22;;;2.13;;
53927;SDS011;39837;47.630;18.822;2024-02-23T10:34:29;2.10;;;2.10;;
53927;SDS011;39837;47.630;18.822;2024-02-23T10:37:13;2.40;;;2.30;;
53927;SDS011;39837;47.630;18.822;2024-02-23T10:39:57;2.10;;;2.10;;
53927;SDS011;39837;47.630;18.822;2024-02-23T10:42:43;2.70;;;2.60;;
53927;SDS011;39837;47.630;18.822;2024-02-23T10:45:37;2.15;;;2.05;;
53927;SDS011;39837;47.630;18.822;2024-02-23T10:48:22;1.95;;;1.92;;
53927;SDS011;39837;47.630;18.822;2024-02-23T10:51:07;2.40;;;2.30;;
53927;SDS011;39837;47.630;18.822;2024-02-23T10:53:52;2.85;;;2.08;;
53927;SDS011;39837;47.630;18.822;2024-02-23T10:56:37;1.98;;;1.88;;
53927;SDS011;39837;47.630;18.822;2024-02-23T10:59:21;1.98;;;1.95;;
53927;SDS011;39837;47.630;18.822;2024-02-23T11:02:06;2.40;;;2.25;;
53927;SDS011;39837;47.630;18.822;2024-02-23T11:04:51;6.55;;;3.10;;
53927;SDS011;39837;47.630;18.822;2024-02-23T11:07:39;2.17;;;2.07;;
53927;SDS011;39837;47.630;18.822;2024-02-23T11:10:24;2.40;;;2.20;;
53927;SDS011;39837;47.630;18.822;2024-02-23T11:13:11;2.13;;;2.03;;
53927;SDS011;39837;47.630;18.822;2024-02-23T11:16:00;1.75;;;1.75;;
53927;SDS011;39837;47.630;18.822;2024-02-23T11:18:45;3.53;;;1.98;;
53927;SDS011;39837;47.630;18.822;2024-02-23T11:21:33;2.78;;;2.50;;
53927;SDS011;39837;47.630;18.822;2024-02-23T11:24:25;2.08;;;2.00;;
53927;SDS011;39837;47.630;18.822;2024-02-23T11:27:13;1.88;;;1.80;;
53927;SDS011;39837;47.630;18.822;2024-02-23T11:30:04;2.13;;;2.03;;
53927;SDS011;39837;47.630;18.822;2024-02-23T11:32:50;1.90;;;1.70;;
53927;SDS011;39837;47.630;18.822;2024-02-23T11:35:46;2.10;;;2.00;;
53927;SDS011;39837;47.630;18.822;2024-02-23T11:38:33;4.15;;;2.75;;
53927;SDS011;39837;47.630;18.822;2024-02-23T11:41:18;2.03;;;1.92;;
53927;SDS011;39837;47.630;18.822;2024-02-23T11:44:02;2.28;;;2.08;;
53927;SDS011;39837;47.630;18.822;2024-02-23T11:46:47;2.42;;;2.20;;
53927;SDS011;39837;47.630;18.822;2024-02-23T11:49:31;8.27;;;2.17;;
53927;SDS011;39837;47.630;18.822;2024-02-23T11:52:15;2.80;;;2.45;;
53927;SDS011;39837;47.630;18.822;2024-02-23T11:55:01;3.70;;;2.83;;
53927;SDS011;39837;47.630;18.822;2024-02-23T11:57:45;2.30;;;2.20;;
53927;SDS011;39837;47.630;18.822;2024-02-23T12:00:30;2.60;;;2.50;;
53927;SDS011;39837;47.630;18.822;2024-02-23T12:03:14;2.20;;;2.05;;
53927;SDS011;39837;47.630;18.822;2024-02-23T12:05:58;2.72;;;2.30;;
53927;SDS011;39837;47.630;18.822;2024-02-23T12:08:43;2.50;;;2.37;;
53927;SDS011;39837;47.630;18.822;2024-02-23T12:11:29;10.50;;;2.38;;
53927;SDS011;39837;47.630;18.822;2024-02-23T12:14:13;2.35;;;2.20;;
53927;SDS011;39837;47.630;18.822;2024-02-23T12:16:57;10.02;;;2.92;;
53927;SDS011;39837;47.630;18.822;2024-02-23T12:19:42;2.03;;;1.92;;
53927;SDS011;39837;47.630;18.822;2024-02-23T12:22:26;3.17;;;2.95;;
53927;SDS011;39837;47.630;18.822;2024-02-23T12:25:11;2.60;;;2.40;;
53927;SDS011;39837;47.630;18.822;2024-02-23T12:27:56;2.30;;;2.13;;
53927;SDS011;39837;47.630;18.822;2024-02-23T12:30:41;3.35;;;3.10;;
53927;SDS011;39837;47.630;18.822;2024-02-23T12:33:29;6.50;;;2.75;;
53927;SDS011;39837;47.630;18.822;2024-02-23T12:36:15;3.95;;;3.35;;
53927;SDS011;39837;47.630;18.822;2024-02-23T12:38:59;2.67;;;2.47;;
53927;SDS011;39837;47.630;18.822;2024-02-23T12:41:43;4.00;;;3.67;;
53927;SDS011;39837;47.630;18.822;2024-02-23T12:44:27;5.63;;;3.42;;
53927;SDS011;39837;47.630;18.822;2024-02-23T12:47:11;3.60;;;3.20;;
53927;SDS011;39837;47.630;18.822;2024-02-23T12:49:56;6.97;;;3.20;;
53927;SDS011;39837;47.630;18.822;2024-02-23T12:52:40;13.90;;;2.75;;
53927;SDS011;39837;47.630;18.822;2024-02-23T12:55:24;2.55;;;2.33;;
53927;SDS011;39837;47.630;18.822;2024-02-23T12:58:08;2.80;;;2.60;;
53927;SDS011;39837;47.630;18.822;2024-02-23T13:00:52;3.20;;;2.97;;
53927;SDS011;39837;47.630;18.822;2024-02-23T13:03:37;2.95;;;2.72;;
53927;SDS011;39837;47.630;18.822;2024-02-23T13:06:22;5.78;;;3.70;;
53927;SDS011;39837;47.630;18.822;2024-02-23T13:09:06;3.33;;;3.13;;
53927;SDS011;39837;47.630;18.822;2024-02-23T13:11:54;3.30;;;3.00;;
53927;SDS011;39837;47.630;18.822;2024-02-23T13:14:38;3.25;;;3.05;;
53927;SDS011;39837;47.630;18.822;2024-02-23T13:17:22;4.22;;;3.22;;
53927;SDS011;39837;47.630;18.822;2024-02-23T13:20:07;3.40;;;3.10;;
53927;SDS011;39837;47.630;18.822;2024-02-23T13:22:51;11.25;;;3.28;;
53927;SDS011;39837;47.630;18.822;2024-02-23T13:25:40;2.78;;;2.58;;
53927;SDS011;39837;47.630;18.822;2024-02-23T13:28:24;2.97;;;2.78;;
53927;SDS011;39837;47.630;18.822;2024-02-23T13:31:08;6.45;;;3.00;;
53927;SDS011;39837;47.630;18.822;2024-02-23T13:33:52;3.90;;;3.60;;
53927;SDS011;39837;47.630;18.822;2024-02-23T13:36:36;3.50;;;3.17;;
53927;SDS011;39837;47.630;18.822;2024-02-23T13:39:20;4.50;;;3.60;;
53927;SDS011;39837;47.630;18.822;2024-02-23T13:42:04;3.80;;;3.50;;
53927;SDS011;39837;47.630;18.822;2024-02-23T13:44:49;7.80;;;5.60;;
53927;SDS011;39837;47.630;18.822;2024-02-23T13:47:33;10.13;;;7.40;;
53927;SDS011;39837;47.630;18.822;2024-02-23T13:50:18;10.65;;;6.70;;
53927;SDS011;39837;47.630;18.822;2024-02-23T13:53:02;10.18;;;6.90;;
53927;SDS011;39837;47.630;18.822;2024-02-23T13:55:46;9.15;;;6.60;;
53927;SDS011;39837;47.630;18.822;2024-02-23T13:58:31;17.23;;;10.57;;
53927;SDS011;39837;47.630;18.822;2024-02-23T14:01:16;39.63;;;18.10;;
53927;SDS011;39837;47.630;18.822;2024-02-23T14:04:05;17.58;;;9.70;;
53927;SDS011;39837;47.630;18.822;2024-02-23T14:06:50;13.60;;;10.23;;
53927;SDS011;39837;47.630;18.822;2024-02-23T14:09:34;20.83;;;12.40;;
53927;SDS011;39837;47.630;18.822;2024-02-23T14:12:18;31.85;;;15.82;;
53927;SDS011;39837;47.630;18.822;2024-02-23T14:15:03;28.70;;;17.13;;
53927;SDS011;39837;47.630;18.822;2024-02-23T14:17:48;27.40;;;13.57;;
53927;SDS011;39837;47.630;18.822;2024-02-23T14:20:33;20.10;;;11.73;;
53927;SDS011;39837;47.630;18.822;2024-02-23T14:23:17;26.70;;;13.50;;
53927;SDS011;39837;47.630;18.822;2024-02-23T14:26:04;29.00;;;17.42;;
53927;SDS011;39837;47.630;18.822;2024-02-23T14:28:48;28.40;;;15.27;;
53927;SDS011;39837;47.630;18.822;2024-02-23T14:31:33;28.63;;;14.97;;
53927;SDS011;39837;47.630;18.822;2024-02-23T14:34:18;25.85;;;15.57;;
53927;SDS011;39837;47.630;18.822;2024-02-23T14:37:02;32.47;;;16.50;;
53927;SDS011;39837;47.630;18.822;2024-02-23T14:39:46;26.95;;;16.48;;
53927;SDS011;39837;47.630;18.822;2024-02-23T14:42:31;20.85;;;12.48;;
53927;SDS011;39837;47.630;18.822;2024-02-23T14:45:15;20.35;;;12.85;;
53927;SDS011;39837;47.630;18.822;2024-02-23T14:48:00;19.38;;;13.07;;
53927;SDS011;39837;47.630;18.822;2024-02-23T14:50:44;16.90;;;11.52;;
53927;SDS011;39837;47.630;18.822;2024-02-23T14:53:28;20.88;;;13.35;;
53927;SDS011;39837;47.630;18.822;2024-02-23T14:56:13;22.00;;;11.75;;
53927;SDS011;39837;47.630;18.822;2024-02-23T14:58:56;20.35;;;11.82;;
53927;SDS011;39837;47.630;18.822;2024-02-23T15:01:41;38.80;;;22.50;;
53927;SDS011;39837;47.630;18.822;2024-02-23T15:04:25;19.23;;;14.27;;
53927;SDS011;39837;47.630;18.822;2024-02-23T15:07:09;27.90;;;18.83;;
53927;SDS011;39837;47.630;18.822;2024-02-23T15:09:53;33.17;;;16.65;;
53927;SDS011;39837;47.630;18.822;2024-02-23T15:12:37;20.48;;;14.43;;
53927;SDS011;39837;47.630;18.822;2024-02-23T15:15:21;18.13;;;13.40;;
53927;SDS011;39837;47.630;18.822;2024-02-23T15:18:06;26.75;;;14.73;;
53927;SDS011;39837;47.630;18.822;2024-02-23T15:20:50;22.17;;;14.73;;
53927;SDS011;39837;47.630;18.822;2024-02-23T15:23:36;18.15;;;13.50;;
53927;SDS011;39837;47.630;18.822;2024-02-23T15:26:20;20.55;;;12.05;;
53927;SDS011;39837;47.630;18.822;2024-02-23T15:29:05;20.83;;;14.05;;
53927;SDS011;39837;47.630;18.822;2024-02-23T15:31:48;22.30;;;15.32;;
53927;SDS011;39837;47.630;18.822;2024-02-23T15:34:32;27.35;;;18.17;;
53927;SDS011;39837;47.630;18.822;2024-02-23T15:37:16;24.13;;;16.75;;
53927;SDS011;39837;47.630;18.822;2024-02-23T15:40:01;23.75;;;15.10;;
53927;SDS011;39837;47.630;18.822;2024-02-23T15:42:47;28.65;;;18.83;;
53927;SDS011;39837;47.630;18.822;2024-02-23T15:48:17;21.13;;;13.75;;
53927;SDS011;39837;47.630;18.822;2024-02-23T15:51:01;17.88;;;12.77;;
53927;SDS011;39837;47.630;18.822;2024-02-23T15:53:46;20.40;;;14.88;;
53927;SDS011;39837;47.630;18.822;2024-02-23T15:56:30;21.23;;;15.13;;
53927;SDS011;39837;47.630;18.822;2024-02-23T15:59:14;17.63;;;13.95;;
53927;SDS011;39837;47.630;18.822;2024-02-23T16:01:59;20.55;;;14.65;;
53927;SDS011;39837;47.630;18.822;2024-02-23T16:04:46;23.95;;;13.82;;
53927;SDS011;39837;47.630;18.822;2024-02-23T16:07:30;21.73;;;15.23;;
53927;SDS011;39837;47.630;18.822;2024-02-23T16:10:17;24.55;;;15.10;;
53927;SDS011;39837;47.630;18.822;2024-02-23T16:13:01;22.35;;;15.30;;
53927;SDS011;39837;47.630;18.822;2024-02-23T16:15:46;21.38;;;14.55;;
53927;SDS011;39837;47.630;18.822;2024-02-23T16:18:31;19.35;;;13.18;;
53927;SDS011;39837;47.630;18.822;2024-02-23T16:21:15;21.85;;;14.18;;